Time;durP1;ratioP1;P1;durP2;ratioP2;P2;SDS_P1;SDS_P2;PMS_P1;PMS_P2;Temp;Humidity;BMP_temperature;BMP_pressure;BME280_temperature;BME280_humidity;BME280_pressure;Samples;Min_cycle;Max_cycle;Signal;HPM_P1;HPM_P2
2022/08/22 07:12:52;;;;;;;9.52;3.50;;;;;;;20.00;53.39;96453.75;2086895;28;20546;-63
2022/08/22 07:14:02;;;;;;;9.00;3.85;;;;;;;20.18;53.36;96454.81;2079410;28;20208;-64
2022/08/22 07:15:20;;;;;;;11.43;4.30;;;;;;;20.27;52.61;96447.88;2079490;28;20636;-64
2022/08/22 07:16:29;;;;;;;9.10;3.67;;;;;;;20.58;52.02;96454.94;2077800;28;20200;-64
2022/08/22 07:17:31;;;;;;;10.85;3.65;;;;;;;20.59;51.03;96461.94;2052425;28;20718;-64
2022/08/22 07:18:33;;;;;;;12.57;3.90;;;;;;;20.47;51.12;96442.66;2053401;28;20550;-64
2022/08/22 07:37:55;;;;;;;10.05;3.53;;;;;;;23.35;44.61;96456.69;2087185;28;20544;-61
2022/08/22 07:39:10;;;;;;;6.00;3.10;;;;;;;23.37;43.66;96461.84;2082961;28;20555;-62
2022/08/22 07:40:22;;;;;;;3.25;2.28;;;;;;;23.39;43.65;96462.50;2084374;28;20199;-62
2022/08/22 07:41:35;;;;;;;7.85;3.40;;;;;;;23.67;43.59;96457.94;2082375;28;20231;-62
2022/08/22 07:43:03;;;;;;;18.50;3.50;;;;;;;24.03;42.32;96463.19;2071709;28;20541;-62
2022/08/22 07:44:16;;;;;;;5.90;2.88;;;;;;;24.12;42.40;96459.59;2073281;28;20251;-62
2022/08/22 07:58:43;;;;;;;10.10;3.38;;;;;;;24.25;41.05;96471.66;2101587;27;20573;-63
2022/08/22 07:59:49;;;;;;;16.75;3.22;;;;;;;23.95;41.61;96468.50;2102473;28;20202;-63
2022/08/22 08:00:51;;;;;;;17.60;3.70;;;;;;;24.27;40.76;96470.50;2100261;28;20715;-63
2022/08/22 08:01:57;;;;;;;15.05;4.00;;;;;;;24.52;40.50;96473.31;2089510;28;20229;-65
2022/08/22 08:03:07;;;;;;;29.02;3.20;;;;;;;24.98;39.82;96472.16;2083139;28;20529;-63
2022/08/22 08:04:14;;;;;;;16.35;2.33;;;;;;;25.30;38.85;96467.88;2074014;28;20202;-63
2022/08/22 08:05:17;;;;;;;15.95;3.75;;;;;;;25.36;38.94;96476.09;2075048;28;20197;-63
2022/08/22 08:06:22;;;;;;;14.18;3.75;;;;;;;25.59;38.81;96470.09;2082642;28;20212;-63
2022/08/22 08:07:26;;;;;;;11.75;3.83;;;;;;;25.87;38.45;96467.06;2089528;28;20219;-63
2022/08/22 08:08:40;;;;;;;15.00;3.50;;;;;;;25.47;38.44;96472.25;2088613;28;20203;-63
2022/08/22 08:23:21;;;;;;;15.55;3.63;;;;;;;26.24;37.23;96461.19;2083370;28;20592;-62
2022/08/22 08:24:29;;;;;;;12.80;3.30;;;;;;;26.45;37.18;96467.78;2083100;28;20196;-63
2022/08/22 08:26:05;;;;;;;13.02;3.42;;;;;;;26.46;37.14;96476.66;2081807;28;20201;-63
2022/08/22 08:28:40;;;;;;;32.78;3.70;;;;;;;26.29;36.69;96475.88;2070963;28;20205;-63
2022/08/22 08:29:53;;;;;;;17.15;3.47;;;;;;;26.32;36.81;96475.53;2075068;28;20578;-63
2022/08/22 08:30:58;;;;;;;13.50;3.42;;;;;;;25.74;37.39;96476.41;2075904;28;20556;-65
2022/08/22 08:32:00;;;;;;;19.98;4.30;;;;;;;25.29;38.15;96476.88;2071039;28;20213;-63
2022/08/22 08:33:05;;;;;;;13.57;4.03;;;;;;;25.59;38.14;96470.91;2070778;28;20190;-63
2022/08/22 08:47:24;;;;;;;12.70;3.20;;;;;;;25.78;37.72;96466.22;2096124;27;20575;-63
2022/08/22 08:48:46;;;;;;;8.57;2.90;;;;;;;26.57;36.70;96468.25;2091362;28;20196;-63
2022/08/22 08:50:06;;;;;;;8.60;4.07;;;;;;;27.08;35.72;96465.16;2089099;28;20701;-64
2022/08/22 08:51:59;;;;;;;7.70;2.65;;;;;;;27.06;35.18;96464.53;2091056;28;20262;-64
2022/08/22 08:53:13;;;;;;;12.07;3.45;;;;;;;25.72;36.85;96459.69;2096258;28;20215;-64
2022/08/22 08:54:46;;;;;;;11.60;2.95;;;;;;;26.76;35.98;96461.66;2100441;28;20229;-64
2022/08/22 08:56:05;;;;;;;10.32;3.00;;;;;;;27.16;35.36;96456.25;2097171;28;20658;-65
2022/08/22 08:57:14;;;;;;;8.05;3.00;;;;;;;27.58;35.04;96457.66;2097190;28;20219;-64
2022/08/22 08:58:55;;;;;;;11.55;3.10;;;;;;;26.93;34.95;96451.72;2097596;28;20203;-64
2022/08/22 09:00:20;;;;;;;11.90;3.20;;;;;;;26.66;35.03;96453.81;2074582;28;20206;-64
2022/08/22 09:15:22;;;;;;;12.70;2.90;;;;;;;28.86;32.62;96452.28;2101552;27;20560;-65
2022/08/22 09:16:41;;;;;;;5.05;2.70;;;;;;;28.93;32.40;96452.38;2101332;28;20212;-65
2022/08/22 09:18:23;;;;;;;4.20;2.55;;;;;;;28.65;32.26;96459.25;2090136;28;20788;-65
2022/08/22 09:19:44;;;;;;;11.43;2.63;;;;;;;28.70;31.90;96453.34;2082768;28;20744;-65
2022/08/22 09:21:05;;;;;;;8.43;3.30;;;;;;;29.02;32.17;96453.94;2086787;28;20711;-66
2022/08/22 09:22:18;;;;;;;8.35;3.03;;;;;;;27.54;33.69;96451.81;2089679;28;20227;-65
2022/08/22 09:23:47;;;;;;;7.90;3.05;;;;;;;26.78;34.24;96456.13;2090361;28;20740;-66
2022/08/22 09:25:27;;;;;;;7.20;2.78;;;;;;;26.51;34.60;96459.06;2089382;28;20200;-65
2022/08/22 09:26:55;;;;;;;6.00;2.60;;;;;;;26.93;34.18;96458.91;2090781;28;20230;-65
2022/08/22 09:28:26;;;;;;;8.50;3.20;;;;;;;27.89;33.19;96456.69;2092033;28;20236;-65
2022/08/22 09:29:36;;;;;;;6.20;2.65;;;;;;;28.48;32.76;96450.56;2093533;28;20225;-65
2022/08/22 09:31:04;;;;;;;6.90;2.20;;;;;;;28.80;32.40;96461.13;2093871;28;20203;-65
2022/08/22 09:32:49;;;;;;;8.00;2.35;;;;;;;28.83;32.25;96461.56;2088499;28;20228;-65
2022/08/22 09:33:56;;;;;;;5.97;2.50;;;;;;;28.27;32.35;96458.53;2089475;28;20192;-66
2022/08/22 09:35:14;;;;;;;10.00;2.90;;;;;;;27.70;33.34;96464.22;2090691;28;20612;-65
2022/08/22 09:50:21;;;;;;;14.18;3.30;;;;;;;29.76;31.16;96458.19;2091291;28;20569;-63
2022/08/22 09:51:38;;;;;;;11.77;2.88;;;;;;;29.72;31.72;96467.66;2086425;28;20197;-62
2022/08/22 09:53:22;;;;;;;10.05;3.30;;;;;;;30.14;31.21;96465.13;2080875;28;20192;-63
2022/08/22 09:54:39;;;;;;;15.73;3.50;;;;;;;30.62;30.34;96461.69;2085468;28;20196;-63
2022/08/22 09:55:59;;;;;;;6.45;2.80;;;;;;;31.07;29.93;96466.66;2085788;28;20570;-63
2022/08/22 09:57:17;;;;;;;11.63;2.75;;;;;;;30.69;30.29;96462.56;2078920;28;20617;-63
2022/08/22 09:58:39;;;;;;;16.65;3.25;;;;;;;31.10;30.26;96463.59;2080762;28;20200;-63
2022/08/22 10:00:00;;;;;;;9.88;3.20;;;;;;;31.35;29.52;96465.69;2077824;28;20860;-63
2022/08/22 10:01:23;;;;;;;7.95;2.90;;;;;;;31.48;29.17;96468.44;2077398;28;20553;-62
2022/08/22 10:02:47;;;;;;;6.47;3.20;;;;;;;31.29;30.19;96467.38;2079190;28;20219;-63
2022/08/22 10:04:05;;;;;;;4.50;2.47;;;;;;;31.75;29.16;96471.19;2080954;28;20771;-62
2022/08/22 10:05:26;;;;;;;5.77;2.70;;;;;;;31.57;28.70;96463.66;2081224;28;20467;-63
2022/08/22 10:07:24;;;;;;;3.73;2.47;;;;;;;31.85;28.40;96471.59;2082088;28;20863;-63
2022/08/22 10:08:48;;;;;;;11.00;2.90;;;;;;;32.20;27.43;96468.69;2066211;28;20490;-63
2022/08/22 10:10:02;;;;;;;6.50;2.90;;;;;;;31.63;27.77;96467.44;2080958;28;20489;-63
2022/08/22 10:11:18;;;;;;;8.50;3.33;;;;;;;30.71;29.09;96465.06;2082750;28;20437;-63
2022/08/22 10:12:29;;;;;;;7.80;2.83;;;;;;;30.20;29.53;96466.22;2088038;28;20469;-63
2022/08/22 10:14:01;;;;;;;5.30;2.73;;;;;;;31.11;28.54;96465.25;2090313;28;20769;-63
2022/08/22 10:15:24;;;;;;;8.47;2.83;;;;;;;31.19;28.31;96461.53;2083138;28;20449;-63
2022/08/22 10:16:55;;;;;;;8.47;3.40;;;;;;;31.71;28.09;96464.53;2085322;28;20451;-63
2022/08/22 10:18:05;;;;;;;8.80;3.07;;;;;;;31.82;27.61;96460.38;2069095;28;20440;-63
2022/08/22 10:19:26;;;;;;;6.63;2.73;;;;;;;30.85;29.06;96464.06;2089372;28;20877;-63
2022/08/22 10:20:48;;;;;;;6.00;2.70;;;;;;;31.37;28.60;96463.63;2088410;28;20425;-63
2022/08/22 10:22:20;;;;;;;8.83;2.83;;;;;;;31.98;27.29;96462.66;2088483;28;20956;-63
2022/08/22 10:23:28;;;;;;;7.80;2.90;;;;;;;32.06;27.54;96462.47;2088444;28;20434;-64
2022/08/22 10:24:53;;;;;;;6.83;2.80;;;;;;;32.28;27.23;96459.53;2086393;28;20425;-62
2022/08/22 10:26:28;;;;;;;9.23;2.93;;;;;;;31.69;27.23;96456.66;2091913;28;20428;-63
2022/08/22 10:27:39;;;;;;;4.67;2.10;;;;;;;32.53;26.95;96456.13;2092464;28;20519;-64
2022/08/22 10:28:55;;;;;;;5.40;2.50;;;;;;;32.85;26.33;96453.59;2088365;28;20436;-63
2022/08/22 10:30:09;;;;;;;8.97;2.20;;;;;;;32.79;27.06;96455.25;2086374;28;20467;-64
2022/08/22 10:31:40;;;;;;;5.50;2.50;;;;;;;32.89;26.26;96457.50;2087237;28;20968;-63
2022/08/22 10:33:29;;;;;;;10.20;3.20;;;;;;;31.34;27.32;96447.84;2089389;28;20452;-63
2022/08/22 10:34:44;;;;;;;5.60;2.70;;;;;;;31.43;27.66;96447.47;2090136;28;20517;-63
2022/08/22 10:36:26;;;;;;;4.97;2.70;;;;;;;30.45;28.65;96445.84;2086480;28;20435;-64
2022/08/22 10:37:35;;;;;;;7.90;2.97;;;;;;;28.70;30.08;96442.63;2092464;28;20947;-66
2022/08/22 10:38:51;;;;;;;7.87;2.63;;;;;;;29.88;29.54;96441.53;2086769;28;20669;-65
2022/08/22 10:40:00;;;;;;;9.00;2.43;;;;;;;30.72;27.79;96443.31;2088398;28;20437;-66
2022/08/22 10:41:36;;;;;;;8.00;3.60;;;;;;;31.06;28.04;96438.06;2086642;28;20477;-65
2022/08/22 10:42:50;;;;;;;7.00;2.17;;;;;;;32.40;26.53;96438.97;2088234;28;20445;-66
2022/08/22 10:44:16;;;;;;;9.60;2.57;;;;;;;31.44;27.14;96434.81;2089224;28;20486;-65
2022/08/22 10:45:17;;;;;;;6.83;2.37;;;;;;;32.65;26.61;96442.81;2089927;28;20436;-70
2022/08/22 10:46:39;;;;;;;6.77;2.50;;;;;;;30.49;28.52;96432.00;2090753;28;20446;-70
2022/08/22 10:48:20;;;;;;;15.07;9.87;;;;;;;31.84;26.87;96442.13;2088374;28;20429;-70
2022/08/22 10:49:48;;;;;;;7.77;4.97;;;;;;;31.64;26.96;96426.75;2097779;28;20563;-71
2022/08/22 10:51:38;;;;;;;12.73;4.93;;;;;;;32.27;25.59;96438.97;2094351;28;20487;-70
2022/08/22 10:54:59;;;;;;;6.30;2.43;;;;;;;32.31;26.30;96434.81;2090651;28;20461;-68
2022/08/22 10:56:16;;;;;;;4.40;2.43;;;;;;;31.33;26.46;96446.22;2090803;28;21015;-68
2022/08/22 10:57:40;;;;;;;5.63;2.50;;;;;;;28.52;29.47;96441.13;2087666;28;20461;-69
2022/08/22 10:59:15;;;;;;;6.13;2.47;;;;;;;29.00;29.11;96434.47;2089000;28;20784;-69
2022/08/22 11:00:54;;;;;;;10.33;2.23;;;;;;;28.57;30.03;96435.19;2086226;28;20424;-71
2022/08/22 11:02:33;;;;;;;4.13;2.60;;;;;;;29.97;29.08;96433.13;2081797;28;20810;-69
2022/08/22 11:03:53;;;;;;;3.83;2.10;;;;;;;30.05;27.20;96431.31;2084722;28;20597;-70
2022/08/22 11:05:13;;;;;;;12.82;8.82;;;;;;;31.75;26.40;96430.69;2083927;28;20614;-69
2022/08/22 11:06:18;;;;;;;97.80;70.37;;;;;;;32.64;25.58;96433.88;2083125;28;20254;-69
2022/08/22 11:07:40;;;;;;;16.93;13.60;;;;;;;33.21;25.18;96434.03;2082765;28;20591;-69
2022/08/22 11:09:12;;;;;;;8.60;2.63;;;;;;;31.26;26.08;96427.31;2087583;28;20452;-70
2022/08/22 11:10:43;;;;;;;4.27;2.17;;;;;;;32.02;25.67;96425.28;2083533;28;20556;-70
2022/08/22 11:11:54;;;;;;;7.93;2.30;;;;;;;32.86;24.96;96431.75;2084063;28;20457;-70
2022/08/22 11:13:05;;;;;;;8.27;2.37;;;;;;;33.43;24.72;96425.59;2084831;28;21112;-70
2022/08/22 11:14:39;;;;;;;5.00;2.43;;;;;;;32.82;25.51;96422.38;2085221;28;20929;-70
2022/08/22 11:16:08;;;;;;;6.43;2.20;;;;;;;34.07;23.96;96424.66;2084154;28;20437;-70
2022/08/22 11:17:17;;;;;;;7.47;2.00;;;;;;;34.46;23.80;96433.47;2084086;28;20465;-70
2022/08/22 11:18:48;;;;;;;9.27;2.57;;;;;;;34.49;23.61;96430.31;2089767;28;20435;-70
2022/08/22 11:20:30;;;;;;;4.40;2.37;;;;;;;34.49;23.28;96428.44;2085412;28;20568;-70
2022/08/22 11:22:10;;;;;;;16.23;3.17;;;;;;;34.49;22.92;96424.91;2083780;28;20426;-70
2022/08/22 11:23:39;;;;;;;6.87;2.50;;;;;;;31.27;25.74;96428.97;2084767;28;20437;-69
2022/08/22 11:25:00;;;;;;;8.73;2.80;;;;;;;29.56;28.11;96424.91;2086014;28;20546;-73
2022/08/22 11:26:32;;;;;;;4.73;2.20;;;;;;;30.44;27.93;96428.00;2082944;28;20513;-69
2022/08/22 11:28:09;;;;;;;11.83;2.23;;;;;;;29.83;28.61;96431.34;2081569;28;20469;-69
2022/08/22 11:29:12;;;;;;;6.43;2.27;;;;;;;30.02;28.11;96419.09;2086522;28;20433;-69
2022/08/22 11:30:19;;;;;;;5.53;2.17;;;;;;;28.57;29.47;96412.88;2086160;28;20927;-68
2022/08/22 11:31:39;;;;;;;5.00;2.35;;;;;;;28.95;29.19;96420.78;2084655;28;20472;-69
2022/08/22 11:32:58;;;;;;;5.67;2.60;;;;;;;29.58;27.63;96418.31;2082400;28;20630;-68
2022/08/22 11:34:13;;;;;;;6.03;2.03;;;;;;;30.73;27.15;96414.50;2086613;28;20477;-68
2022/08/22 11:35:30;;;;;;;6.83;2.47;;;;;;;32.29;25.92;96400.94;2085831;28;20479;-69
2022/08/22 11:36:38;;;;;;;4.70;1.97;;;;;;;32.72;25.32;96412.03;2084690;28;20425;-69
2022/08/22 11:37:48;;;;;;;7.37;2.50;;;;;;;33.71;24.36;96405.38;2079609;28;20427;-69
2022/08/22 11:39:18;;;;;;;6.57;2.73;;;;;;;31.98;25.56;96405.97;2086920;28;20432;-69
2022/08/22 11:40:41;;;;;;;7.80;2.27;;;;;;;31.61;25.65;96408.25;2083881;28;20434;-69
2022/08/22 11:41:48;;;;;;;5.53;2.97;;;;;;;33.17;24.66;96405.75;2087030;28;20503;-69
2022/08/22 11:43:30;;;;;;;3.77;2.30;;;;;;;33.94;23.76;96402.09;2085484;28;20511;-69
2022/08/22 11:44:54;;;;;;;10.50;2.70;;;;;;;34.22;23.56;96402.66;2080600;28;20945;-68
2022/08/22 11:45:59;;;;;;;4.30;2.20;;;;;;;33.14;24.19;96399.97;2082895;28;20457;-69
2022/08/22 11:47:06;;;;;;;6.10;2.40;;;;;;;33.70;23.97;96398.34;2085007;28;20829;-68
2022/08/22 11:48:22;;;;;;;4.67;2.17;;;;;;;34.46;23.46;96400.94;2085591;28;20425;-69
2022/08/22 11:49:32;;;;;;;14.33;10.67;;;;;;;34.62;22.91;96400.34;2085253;28;20425;-69
2022/08/22 11:51:16;;;;;;;5.97;3.10;;;;;;;34.08;23.61;96410.09;2084915;28;20833;-69
2022/08/22 11:52:46;;;;;;;5.33;2.17;;;;;;;34.80;23.26;96398.66;2056245;28;20458;-68
2022/08/22 11:54:37;;;;;;;5.30;2.40;;;;;;;32.49;24.52;96395.47;2074810;28;20971;-68
2022/08/22 11:56:07;;;;;;;3.73;2.20;;;;;;;32.51;25.74;96402.31;2069241;28;20515;-69
2022/08/22 11:57:16;;;;;;;8.20;2.80;;;;;;;32.69;25.40;96396.22;2093246;28;21000;-69
2022/08/22 11:58:21;;;;;;;6.10;1.93;;;;;;;34.36;23.97;96401.50;2093026;28;20429;-70
2022/08/22 11:59:52;;;;;;;17.33;2.57;;;;;;;34.99;23.39;96405.75;2084005;28;20528;-68
2022/08/22 12:00:55;;;;;;;4.40;2.33;;;;;;;32.94;24.50;96394.66;2082327;28;20429;-69
2022/08/22 12:02:03;;;;;;;6.90;2.03;;;;;;;32.38;25.54;96402.38;2081683;28;20456;-70
2022/08/22 12:03:18;;;;;;;4.87;2.13;;;;;;;32.44;24.85;96400.69;2085242;28;20441;-69
2022/08/22 12:04:44;;;;;;;6.43;2.33;;;;;;;31.61;26.33;96400.16;2080274;28;20954;-69
2022/08/22 12:06:05;;;;;;;5.47;2.40;;;;;;;34.23;24.51;96404.31;2084716;28;20425;-70
2022/08/22 12:07:16;;;;;;;3.37;1.97;;;;;;;34.09;24.13;96401.72;2081076;28;20493;-70
2022/08/22 12:08:29;;;;;;;11.73;2.37;;;;;;;33.87;23.48;96395.09;2090093;28;20433;-68
2022/08/22 12:09:53;;;;;;;6.90;2.13;;;;;;;32.64;25.17;96398.75;2088969;28;20425;-69
2022/08/22 12:11:18;;;;;;;4.00;2.53;;;;;;;33.79;24.48;96405.13;2087195;28;20461;-68
2022/08/22 12:12:28;;;;;;;3.30;1.87;;;;;;;33.28;24.46;96393.47;2073297;28;20647;-68
2022/08/22 12:13:54;;;;;;;6.87;2.40;;;;;;;33.05;25.00;96402.94;2082956;28;20438;-70
2022/08/22 12:15:38;;;;;;;20.03;2.97;;;;;;;31.92;26.12;96396.00;2083672;28;20426;-70
2022/08/22 12:16:50;;;;;;;9.83;5.00;;;;;;;31.68;26.31;96403.72;2084921;28;20474;-70
2022/08/22 12:18:19;;;;;;;8.63;3.27;;;;;;;31.51;26.77;96391.66;2083678;28;20422;-70
2022/08/22 12:19:27;;;;;;;11.13;4.83;;;;;;;31.25;27.19;96398.69;2084692;28;20433;-70
2022/08/22 12:20:48;;;;;;;5.10;2.20;;;;;;;30.97;26.85;96386.19;2080286;28;20908;-69
2022/08/22 12:22:03;;;;;;;5.40;2.50;;;;;;;30.84;27.01;96388.81;2083576;28;20461;-70
2022/08/22 12:23:23;;;;;;;4.70;2.20;;;;;;;30.85;26.98;96382.41;2081168;28;20476;-70
2022/08/22 12:25:01;;;;;;;4.70;2.10;;;;;;;30.76;27.44;96387.97;2082249;28;20429;-70
2022/08/22 12:26:15;;;;;;;2.87;1.80;;;;;;;31.07;27.36;96383.09;2084083;28;20437;-70
2022/08/22 12:27:35;;;;;;;6.43;2.80;;;;;;;30.74;27.05;96381.13;2086903;28;20468;-70
2022/08/22 12:28:49;;;;;;;5.80;1.93;;;;;;;30.30;28.06;96388.59;2085765;28;20437;-70
2022/08/22 12:30:07;;;;;;;3.40;2.00;;;;;;;31.50;26.55;96380.03;2081684;28;20438;-70
2022/08/22 12:31:36;;;;;;;5.20;2.20;;;;;;;32.87;25.31;96381.19;2080620;28;20514;-69
2022/08/22 12:33:09;;;;;;;5.57;2.10;;;;;;;33.02;25.07;96386.31;2085453;28;20447;-70
2022/08/22 12:34:51;;;;;;;5.40;2.00;;;;;;;33.39;24.91;96385.69;2078155;28;20435;-70
2022/08/22 12:36:20;;;;;;;9.00;2.80;;;;;;;33.31;24.28;96382.19;2080747;28;20431;-70
2022/08/22 12:38:03;;;;;;;4.13;2.23;;;;;;;32.89;24.52;96379.13;2080412;28;20996;-69
2022/08/22 12:39:53;;;;;;;5.63;2.50;;;;;;;34.09;24.06;96387.38;2048966;28;20819;-70
2022/08/22 12:41:26;;;;;;;5.70;2.70;;;;;;;34.27;23.44;96386.53;2050713;28;20421;-69
2022/08/22 12:42:47;;;;;;;6.60;2.70;;;;;;;34.97;23.55;96378.00;2085796;28;20438;-69
2022/08/22 12:43:59;;;;;;;10.90;3.37;;;;;;;35.34;23.08;96381.63;2082055;28;20818;-69
2022/08/22 12:45:25;;;;;;;5.87;2.00;;;;;;;35.19;23.35;96380.19;2085489;28;20426;-68
2022/08/22 12:46:47;;;;;;;7.13;2.93;;;;;;;34.19;23.69;96374.13;2087396;28;20584;-68
2022/08/22 12:48:06;;;;;;;6.93;2.40;;;;;;;35.37;22.88;96375.78;2093107;28;20454;-68
2022/08/22 12:49:20;;;;;;;3.50;2.00;;;;;;;34.20;23.50;96378.50;2087358;28;20902;-68
2022/08/22 12:50:36;;;;;;;4.20;2.27;;;;;;;34.45;24.10;96364.91;2084098;28;20423;-69
2022/08/22 12:51:56;;;;;;;14.53;8.70;;;;;;;35.23;23.50;96370.53;2085501;28;20437;-69
2022/08/22 12:53:23;;;;;;;16.10;3.27;;;;;;;35.29;23.57;96368.78;2087269;28;20512;-68
2022/08/22 12:54:55;;;;;;;17.20;11.97;;;;;;;36.17;22.68;96365.44;2087908;28;20515;-69
2022/08/22 12:56:41;;;;;;;5.87;2.30;;;;;;;36.23;22.59;96369.94;2086283;28;20425;-69
2022/08/22 12:57:47;;;;;;;4.00;2.03;;;;;;;35.45;22.56;96370.84;2084347;28;20445;-69
2022/08/22 12:59:15;;;;;;;7.10;2.47;;;;;;;35.15;22.55;96370.88;2085126;28;20428;-69
2022/08/22 13:00:29;;;;;;;3.97;2.50;;;;;;;35.96;22.51;96370.41;2081194;28;20441;-69
2022/08/22 13:01:41;;;;;;;10.80;2.20;;;;;;;36.54;21.85;96376.03;2086849;28;20963;-69
2022/08/22 13:02:44;;;;;;;3.10;1.83;;;;;;;36.79;21.10;96367.56;2087822;28;20490;-69
2022/08/22 13:03:49;;;;;;;3.73;2.23;;;;;;;34.08;23.13;96367.59;2089134;28;20433;-68
2022/08/22 13:04:55;;;;;;;7.10;2.30;;;;;;;34.06;23.61;96364.28;2088162;28;20770;-69
2022/08/22 13:06:24;;;;;;;6.00;2.93;;;;;;;32.63;24.57;96364.66;2085773;28;20501;-68
2022/08/22 13:07:33;;;;;;;5.30;2.67;;;;;;;34.49;23.06;96368.00;2091224;28;20441;-67
2022/08/22 13:08:40;;;;;;;6.83;2.50;;;;;;;35.40;22.75;96359.03;2077400;28;20990;-68
2022/08/22 13:09:48;;;;;;;11.63;2.80;;;;;;;34.97;23.33;96361.75;2078388;28;20460;-69
2022/08/22 13:11:00;;;;;;;5.90;2.50;;;;;;;32.75;25.01;96366.69;2085405;28;20457;-69
2022/08/22 13:12:25;;;;;;;8.63;2.30;;;;;;;31.31;26.56;96362.78;2083501;28;20453;-69
2022/08/22 13:13:40;;;;;;;6.30;2.03;;;;;;;31.75;26.40;96357.84;2087447;28;20441;-67
2022/08/22 13:14:44;;;;;;;10.83;2.53;;;;;;;33.22;24.74;96359.16;2085866;28;20421;-68
2022/08/22 13:15:54;;;;;;;7.07;3.10;;;;;;;34.14;23.93;96357.72;2084384;28;20457;-69
2022/08/22 13:17:03;;;;;;;6.30;2.40;;;;;;;32.96;24.75;96352.03;2083090;28;20449;-68
2022/08/22 13:18:32;;;;;;;6.13;2.30;;;;;;;31.82;25.98;96358.66;2083921;28;20430;-69
2022/08/22 13:19:48;;;;;;;4.33;2.33;;;;;;;29.54;27.98;96354.38;2082817;28;20435;-68
2022/08/22 13:20:55;;;;;;;4.80;2.30;;;;;;;29.95;28.41;96361.69;2079573;28;20433;-68
2022/08/22 13:22:06;;;;;;;6.80;2.80;;;;;;;31.40;26.46;96355.34;2085995;28;20959;-69
2022/08/22 13:23:36;;;;;;;3.57;2.30;;;;;;;31.24;26.32;96360.09;2087912;28;20460;-72
2022/08/22 13:24:57;;;;;;;6.63;2.30;;;;;;;31.36;26.64;96359.50;2084118;28;20440;-70
2022/08/22 13:26:18;;;;;;;4.87;2.70;;;;;;;32.99;25.06;96352.44;2086527;28;20437;-70
2022/08/22 13:27:46;;;;;;;11.20;2.87;;;;;;;31.62;25.71;96352.41;2082440;28;20423;-68
2022/08/22 13:29:20;;;;;;;13.17;3.53;;;;;;;30.99;27.27;96342.84;2085246;28;20512;-68
2022/08/22 13:30:41;;;;;;;4.57;2.30;;;;;;;33.53;25.25;96346.63;2084436;28;20544;-67
2022/08/22 13:31:52;;;;;;;8.63;2.50;;;;;;;34.78;24.01;96349.25;2084157;28;20453;-69
2022/08/22 13:33:11;;;;;;;4.37;2.30;;;;;;;35.21;23.35;96350.13;2083131;28;20490;-69
2022/08/22 13:34:31;;;;;;;3.77;2.20;;;;;;;35.59;23.17;96343.47;2084833;28;21018;-68
2022/08/22 13:35:52;;;;;;;3.97;2.20;;;;;;;36.41;22.80;96352.66;2086914;28;20444;-69
2022/08/22 13:36:59;;;;;;;6.73;2.27;;;;;;;36.27;22.44;96341.22;2084349;28;20959;-69
2022/08/22 13:38:08;;;;;;;7.63;2.30;;;;;;;34.73;22.69;96355.38;2086313;28;20446;-68
2022/08/22 13:39:13;;;;;;;4.03;2.00;;;;;;;32.64;24.66;96346.56;2085229;28;20422;-71
2022/08/22 13:40:28;;;;;;;4.40;2.10;;;;;;;31.67;25.79;96344.56;2080418;28;21167;-69
2022/08/22 13:41:34;;;;;;;4.07;2.47;;;;;;;31.30;26.64;96339.59;2083765;28;20682;-69
2022/08/22 13:42:49;;;;;;;4.30;2.47;;;;;;;30.57;27.32;96342.94;2082181;28;20422;-68
2022/08/22 13:44:03;;;;;;;6.30;2.83;;;;;;;31.12;27.23;96347.44;2084076;28;20787;-69
2022/08/22 13:45:19;;;;;;;9.40;2.30;;;;;;;30.98;26.96;96347.38;2086483;28;20908;-67
2022/08/22 13:46:26;;;;;;;5.10;2.40;;;;;;;30.26;27.41;96336.19;2083862;28;20464;-68
2022/08/22 13:47:33;;;;;;;7.43;2.70;;;;;;;31.72;26.30;96344.78;2081998;28;20449;-68
2022/08/22 13:48:48;;;;;;;6.70;2.40;;;;;;;33.49;24.61;96345.44;2083306;28;20430;-68
2022/08/22 13:50:11;;;;;;;3.60;2.13;;;;;;;32.75;24.15;96343.22;2083129;28;20425;-69
2022/08/22 13:51:27;;;;;;;7.93;2.60;;;;;;;32.73;24.44;96345.28;2082627;28;20501;-67
2022/08/22 13:52:45;;;;;;;3.67;1.93;;;;;;;31.41;25.43;96338.97;2081027;28;20562;-70
2022/08/22 13:54:10;;;;;;;8.20;2.23;;;;;;;32.39;24.42;96340.03;2082641;28;20426;-69
2022/08/22 13:55:19;;;;;;;4.63;2.30;;;;;;;30.98;25.71;96335.78;2083353;28;20426;-69
2022/08/22 13:56:27;;;;;;;3.77;2.20;;;;;;;32.38;24.66;96340.28;2087066;28;20766;-69
2022/08/22 13:57:44;;;;;;;5.30;2.40;;;;;;;33.00;24.11;96342.44;2078878;28;20439;-69
2022/08/22 13:58:57;;;;;;;5.53;2.30;;;;;;;32.74;24.67;96330.75;2080556;28;20426;-69
2022/08/22 14:00:17;;;;;;;9.13;2.40;;;;;;;33.43;23.81;96336.31;2084089;28;20785;-68
2022/08/22 14:01:36;;;;;;;6.63;2.90;;;;;;;33.13;23.76;96336.09;2078897;28;20427;-68
2022/08/22 14:02:59;;;;;;;6.43;2.47;;;;;;;32.43;23.59;96332.34;2084390;28;20429;-69
2022/08/22 14:04:11;;;;;;;5.80;2.97;;;;;;;31.88;24.95;96330.00;2087139;28;20476;-70
2022/08/22 14:05:37;;;;;;;3.33;1.90;;;;;;;32.06;24.63;96327.47;2086710;28;20440;-68
2022/08/22 14:07:15;;;;;;;6.40;1.70;;;;;;;32.39;24.30;96328.41;2082786;28;20430;-69
2022/08/22 14:08:31;;;;;;;7.40;3.30;;;;;;;30.48;26.52;96326.13;2083622;28;20505;-69
2022/08/22 14:09:56;;;;;;;6.60;2.50;;;;;;;31.64;25.60;96321.53;2085132;28;20980;-68
2022/08/22 14:11:09;;;;;;;10.73;2.70;;;;;;;32.51;24.85;96328.56;2082033;28;20572;-69
2022/08/22 14:12:29;;;;;;;13.63;2.83;;;;;;;31.80;25.21;96327.53;2080603;28;20977;-69
2022/08/22 14:14:02;;;;;;;7.90;3.00;;;;;;;33.01;24.09;96322.47;2086991;28;20452;-69
2022/08/22 14:15:06;;;;;;;10.10;4.77;;;;;;;33.15;23.95;96321.31;2079281;28;20476;-69
2022/08/22 14:16:22;;;;;;;17.27;2.63;;;;;;;32.18;25.02;96311.44;2078064;28;20433;-70
2022/08/22 14:17:30;;;;;;;9.07;1.80;;;;;;;32.32;24.31;96314.09;2080014;28;20445;-70
2022/08/22 14:18:40;;;;;;;5.70;2.50;;;;;;;30.80;26.11;96320.22;2080322;28;20445;-70
2022/08/22 14:19:57;;;;;;;6.57;2.10;;;;;;;30.15;27.46;96326.00;2081581;28;20950;-70
2022/08/22 14:21:18;;;;;;;6.80;2.63;;;;;;;30.60;26.26;96323.69;2082701;28;20425;-71
2022/08/22 14:22:24;;;;;;;5.50;2.10;;;;;;;31.71;24.88;96308.84;2081956;28;20519;-69
2022/08/22 14:23:36;;;;;;;4.30;2.57;;;;;;;32.58;24.66;96317.72;2082349;28;20433;-70
2022/08/22 14:24:42;;;;;;;5.60;2.10;;;;;;;33.32;24.07;96315.38;2084333;28;20427;-69
2022/08/22 14:25:46;;;;;;;5.67;2.50;;;;;;;32.16;24.70;96315.38;2083503;28;20512;-70
2022/08/22 14:26:59;;;;;;;3.90;2.30;;;;;;;32.70;24.47;96310.59;2083617;28;20457;-69
2022/08/22 14:28:19;;;;;;;6.23;2.03;;;;;;;33.56;23.64;96318.31;2084270;28;20429;-70
2022/08/22 14:29:23;;;;;;;4.40;2.40;;;;;;;31.33;25.82;96309.50;2089359;28;20518;-70
2022/08/22 14:30:31;;;;;;;15.87;3.07;;;;;;;30.84;26.40;96316.88;2089940;28;20536;-70
2022/08/22 14:31:33;;;;;;;7.93;2.50;;;;;;;32.34;25.11;96299.34;2084206;28;20457;-69
2022/08/22 14:32:43;;;;;;;7.87;2.40;;;;;;;33.07;24.94;96316.19;2084574;28;20429;-69
2022/08/22 14:33:54;;;;;;;7.33;2.50;;;;;;;33.39;24.54;96318.88;2078146;28;20936;-70
2022/08/22 14:35:06;;;;;;;6.07;2.57;;;;;;;33.15;24.45;96313.19;2080532;28;21085;-70
2022/08/22 14:36:36;;;;;;;6.10;2.87;;;;;;;33.25;24.65;96314.59;2081303;28;20429;-69
2022/08/22 14:37:41;;;;;;;3.73;1.70;;;;;;;34.23;23.50;96315.72;2084020;28;21033;-71
2022/08/22 14:38:49;;;;;;;6.70;2.00;;;;;;;34.75;23.35;96309.88;2087094;28;20432;-70
2022/08/22 14:39:58;;;;;;;10.70;2.20;;;;;;;35.15;22.79;96313.91;2087138;28;20433;-70
2022/08/22 14:41:05;;;;;;;4.10;2.07;;;;;;;35.38;22.77;96310.44;2080914;28;20484;-70
2022/08/22 14:42:28;;;;;;;8.03;2.00;;;;;;;35.34;22.39;96311.94;2083185;28;20472;-70
2022/08/22 14:43:32;;;;;;;2.80;1.93;;;;;;;35.80;22.24;96313.00;2091326;28;20432;-70
2022/08/22 14:44:57;;;;;;;3.40;1.83;;;;;;;35.84;22.10;96316.09;2090569;28;20489;-70
2022/08/22 14:46:05;;;;;;;3.40;2.00;;;;;;;35.89;22.00;96307.25;2084756;28;20436;-70
2022/08/22 14:47:35;;;;;;;5.60;2.17;;;;;;;36.45;21.66;96321.22;2082477;28;20556;-70
2022/08/22 14:49:12;;;;;;;4.07;2.00;;;;;;;35.96;21.85;96308.78;2086884;28;20848;-69
2022/08/22 14:50:53;;;;;;;5.33;1.87;;;;;;;36.35;21.78;96308.22;2089254;28;20486;-69
2022/08/22 14:52:09;;;;;;;2.77;1.63;;;;;;;36.34;21.17;96308.47;2083898;28;20452;-69
2022/08/22 14:53:25;;;;;;;6.10;2.20;;;;;;;36.43;21.38;96309.75;2081679;28;20478;-69